Time;durP1;ratioP1;P1;durP2;ratioP2;P2;SDS_P1;SDS_P2;PMS_P1;PMS_P2;Temp;Humidity;BMP_temperature;BMP_pressure;BME280_temperature;BME280_humidity;BME280_pressure;Samples;Min_cycle;Max_cycle;Signal;HPM_P1;HPM_P2
2021/08/21 00:02:23;;;;;;;5.15;3.50;;;;;;;24.35;49.07;101483.60;1666056;85;20997;-47
2021/08/21 00:04:51;;;;;;;5.30;3.55;;;;;;;24.34;49.20;101487.23;1665965;85;21013;-46
2021/08/21 00:07:19;;;;;;;4.28;3.52;;;;;;;24.33;49.20;101486.84;1664112;84;21077;-49
2021/08/21 00:09:46;;;;;;;4.95;3.80;;;;;;;24.33;49.29;101486.84;1655314;85;21017;-46
2021/08/21 00:12:13;;;;;;;8.83;3.85;;;;;;;24.31;49.60;101481.63;1666109;85;21469;-48
2021/08/21 00:14:41;;;;;;;6.97;3.75;;;;;;;24.33;49.92;101476.20;1663912;85;21056;-46
2021/08/21 00:17:08;;;;;;;4.35;3.95;;;;;;;24.34;50.36;101477.92;1664800;85;21523;-49
2021/08/21 00:19:34;;;;;;;4.25;3.85;;;;;;;24.37;50.56;101481.69;1665187;85;21042;-46
2021/08/21 00:22:01;;;;;;;5.47;4.78;;;;;;;24.38;50.79;101476.77;1666000;85;21033;-45
2021/08/21 00:24:27;;;;;;;5.37;3.85;;;;;;;24.40;50.99;101472.19;1666091;85;21507;-49
2021/08/21 00:26:55;;;;;;;4.53;4.12;;;;;;;24.42;51.04;101470.27;1657232;85;21068;-46
2021/08/21 00:29:22;;;;;;;4.60;4.17;;;;;;;24.45;51.19;101471.37;1654597;85;21524;-48
2021/08/21 00:31:50;;;;;;;5.67;4.25;;;;;;;24.48;51.30;101462.73;1661332;85;21107;-48
2021/08/21 00:34:16;;;;;;;4.15;3.85;;;;;;;24.51;51.28;101469.62;1667788;84;21051;-50
2021/08/21 00:36:44;;;;;;;7.03;4.62;;;;;;;24.53;51.45;101471.70;1664138;85;21063;-47
2021/08/21 00:39:11;;;;;;;5.25;4.75;;;;;;;24.56;51.72;101468.85;1652855;85;21091;-48
2021/08/21 00:41:39;;;;;;;5.67;5.12;;;;;;;24.57;52.10;101466.55;1714785;82;21006;-49
2021/08/21 00:44:06;;;;;;;7.28;5.50;;;;;;;24.56;52.33;101463.53;1675899;83;21034;-46
2021/08/21 00:47:00;;;;;;;10.10;5.97;;;;;;;24.55;52.48;101472.45;1709976;82;21612;-48
2021/08/21 00:49:28;;;;;;;6.65;5.97;;;;;;;24.58;52.60;101461.61;1616947;87;21084;-51
2021/08/21 00:51:58;;;;;;;8.28;6.22;;;;;;;24.56;52.80;101468.85;1618309;86;21598;-49
2021/08/21 00:54:25;;;;;;;10.28;6.70;;;;;;;24.54;53.07;101468.97;1624184;87;21534;-45
2021/08/21 00:56:54;;;;;;;7.75;6.25;;;;;;;24.55;53.14;101473.78;1624994;87;21085;-46
2021/08/21 00:59:21;;;;;;;8.03;6.00;;;;;;;24.54;52.93;101473.42;1621907;86;21071;-48
2021/08/21 01:01:49;;;;;;;10.88;6.08;;;;;;;24.53;53.12;101477.89;1621821;87;21670;-48
2021/08/21 01:04:17;;;;;;;8.75;5.47;;;;;;;24.55;53.21;101483.09;1636292;87;21113;-48
2021/08/21 01:06:44;;;;;;;7.47;6.12;;;;;;;24.54;53.17;101484.06;1602854;88;21085;-45
2021/08/21 01:09:11;;;;;;;8.15;6.03;;;;;;;24.55;53.21;101485.75;1621170;87;21121;-48
2021/08/21 01:11:38;;;;;;;7.03;5.70;;;;;;;24.56;53.17;101484.81;1616986;87;21172;-48
2021/08/21 01:14:05;;;;;;;6.15;5.28;;;;;;;24.57;53.18;101491.82;1603154;88;21070;-51
2021/08/21 01:16:32;;;;;;;5.97;5.33;;;;;;;24.57;53.08;101481.18;1621886;87;21640;-48
2021/08/21 01:19:00;;;;;;;6.12;5.53;;;;;;;24.58;52.87;101489.08;1617815;87;21615;-45
2021/08/21 01:21:27;;;;;;;15.50;6.72;;;;;;;24.56;52.68;101487.48;1658853;85;21136;-48
2021/08/21 01:23:55;;;;;;;6.05;5.45;;;;;;;24.55;52.58;101483.09;1655742;85;21139;-48
2021/08/21 01:26:26;;;;;;;6.33;5.25;;;;;;;24.56;52.41;101484.81;1689226;82;20998;-50
2021/08/21 01:28:57;;;;;;;7.50;5.90;;;;;;;24.55;52.32;101483.09;1721324;82;21470;-48
2021/08/21 01:31:28;;;;;;;;;;;;;;;24.53;52.37;101489.86;1723761;82;21114;-48
2021/08/21 01:33:56;;;;;;;7.58;5.28;;;;;;;24.51;52.41;101484.27;1725089;82;20155;-49
2021/08/21 01:36:23;;;;;;;8.20;5.55;;;;;;;24.49;52.61;101486.17;1721529;82;21045;-48
2021/08/21 01:38:58;;;;;;;5.92;5.42;;;;;;;24.47;52.61;101482.77;1729295;82;21058;-47
2021/08/21 01:41:40;;;;;;;8.30;5.95;;;;;;;24.48;52.65;101489.80;1723103;82;21048;-48
2021/08/21 01:44:10;;;;;;;6.15;5.55;;;;;;;24.48;52.64;101489.80;1718979;82;21070;-46
2021/08/21 01:46:37;;;;;;;6.50;5.87;;;;;;;24.48;52.63;101492.47;1725505;82;21050;-48
2021/08/21 01:49:08;;;;;;;8.13;5.55;;;;;;;24.48;52.72;101488.01;1712516;82;21077;-45
2021/08/21 01:51:34;;;;;;;10.15;6.00;;;;;;;24.50;52.75;101495.88;1722987;82;20994;-46
2021/08/21 01:54:03;;;;;;;7.05;5.87;;;;;;;24.50;52.69;101501.20;1705378;82;21478;-49
2021/08/21 01:56:45;;;;;;;6.65;5.72;;;;;;;24.51;52.72;101497.56;1723583;82;21034;-45
2021/08/21 01:59:41;;;;;;;7.20;6.07;;;;;;;24.51;52.77;101492.24;1716069;82;21070;-46
2021/08/21 02:02:13;;;;;;;6.40;5.47;;;;;;;24.49;52.97;101495.02;1708591;82;21028;-51
2021/08/21 02:04:41;;;;;;;6.50;5.58;;;;;;;24.49;53.29;101499.48;1691108;84;21033;-45
2021/08/21 02:07:10;;;;;;;7.20;6.33;;;;;;;24.46;53.86;101497.05;1689656;84;21587;-48
2021/08/21 02:09:38;;;;;;;7.28;6.12;;;;;;;24.44;54.14;101496.30;1688357;84;21105;-48
2021/08/21 02:12:06;;;;;;;10.03;6.75;;;;;;;24.43;54.23;101494.57;1687627;84;21014;-50
2021/08/21 02:14:35;;;;;;;9.30;6.87;;;;;;;24.43;54.40;101498.56;1655467;86;21061;-45
2021/08/21 02:17:03;;;;;;;8.13;7.33;;;;;;;24.43;54.66;101502.55;1653050;86;21045;-51
2021/08/21 02:19:32;;;;;;;7.45;6.40;;;;;;;24.40;54.50;101501.45;1660860;86;21653;-49
2021/08/21 02:22:05;;;;;;;8.65;6.72;;;;;;;24.38;54.05;101504.69;1613017;86;21551;-45
2021/08/21 02:24:33;;;;;;;8.45;7.00;;;;;;;24.36;53.98;101502.11;1636688;86;21078;-48
2021/08/21 02:27:01;;;;;;;10.80;6.87;;;;;;;24.37;54.25;101498.98;1651003;86;21138;-46
2021/08/21 02:29:28;;;;;;;8.83;6.50;;;;;;;24.37;54.36;101498.98;1625416;87;21063;-48
2021/08/21 02:31:56;;;;;;;7.03;6.33;;;;;;;24.34;54.31;101498.70;1596229;89;21003;-48
2021/08/21 02:34:24;;;;;;;8.43;6.75;;;;;;;24.34;54.35;101496.55;1620762;87;21046;-47
2021/08/21 02:36:53;;;;;;;9.35;6.50;;;;;;;24.33;54.26;101501.47;1645826;86;21066;-49
2021/08/21 02:39:20;;;;;;;7.47;6.62;;;;;;;24.32;54.12;101501.11;1640831;86;21893;-50
2021/08/21 02:41:46;;;;;;;9.53;6.70;;;;;;;24.32;53.90;101499.78;1646567;85;21054;-48
2021/08/21 02:44:13;;;;;;;8.88;6.03;;;;;;;24.30;53.81;101499.03;1654448;85;21139;-45
2021/08/21 02:46:40;;;;;;;6.40;5.78;;;;;;;24.29;53.86;101502.63;1660220;85;21566;-48
2021/08/21 02:49:07;;;;;;;7.12;6.42;;;;;;;24.28;53.87;101506.27;1652248;86;21531;-49
2021/08/21 02:51:34;;;;;;;8.28;5.62;;;;;;;24.28;53.54;101511.59;1655258;85;21026;-48
2021/08/21 02:54:00;;;;;;;8.78;6.22;;;;;;;24.24;53.35;101506.92;1599444;88;21094;-46
2021/08/21 02:56:27;;;;;;;9.08;6.47;;;;;;;24.23;53.36;101510.05;1601813;87;21165;-49
2021/08/21 02:58:54;;;;;;;8.53;6.37;;;;;;;24.22;53.59;101511.02;1604197;88;21041;-47
2021/08/21 03:01:23;;;;;;;6.78;5.62;;;;;;;24.21;53.40;101516.45;1595974;86;21078;-47
2021/08/21 03:03:51;;;;;;;9.53;6.05;;;;;;;24.18;53.44;101509.52;1601020;87;21152;-45
2021/08/21 03:06:18;;;;;;;7.28;6.42;;;;;;;24.16;53.32;101508.77;1596972;86;21028;-45
2021/08/21 03:08:44;;;;;;;9.55;7.00;;;;;;;24.16;53.25;101506.11;1652198;86;21041;-46
2021/08/21 03:11:13;;;;;;;9.38;6.30;;;;;;;24.15;53.45;101505.72;1643532;86;21010;-48
2021/08/21 03:13:53;;;;;;;10.90;6.95;;;;;;;24.16;53.47;101507.45;1579498;89;21050;-48
2021/08/21 03:16:20;;;;;;;6.97;6.05;;;;;;;24.14;53.34;101506.70;1588175;89;21054;-47
2021/08/21 03:18:48;;;;;;;10.45;6.87;;;;;;;24.12;53.31;101507.74;1594907;88;21156;-46
2021/08/21 03:21:16;;;;;;;7.58;6.80;;;;;;;24.12;53.28;101512.59;1600100;88;21827;-47
2021/08/21 03:23:43;;;;;;;9.83;7.17;;;;;;;24.10;53.22;101521.61;1601118;87;20999;-47
2021/08/21 03:26:12;;;;;;;10.32;6.70;;;;;;;24.07;53.38;101520.00;1602181;88;21136;-48
2021/08/21 03:28:41;;;;;;;8.10;6.50;;;;;;;24.08;53.46;101523.52;1612963;87;21109;-49
2021/08/21 03:31:08;;;;;;;8.43;7.37;;;;;;;24.08;53.60;101523.05;1620199;87;21056;-50
2021/08/21 03:33:35;;;;;;;8.40;7.12;;;;;;;24.06;53.50;101523.62;1603376;88;21028;-52
2021/08/21 03:36:03;;;;;;;11.18;7.40;;;;;;;24.06;53.44;101523.62;1615899;87;21629;-49
2021/08/21 03:38:32;;;;;;;10.32;7.33;;;;;;;24.06;53.37;101522.77;1612673;87;21101;-50
2021/08/21 03:41:00;;;;;;;9.18;6.55;;;;;;;24.05;53.63;101527.23;1607157;87;21058;-48
2021/08/21 03:43:27;;;;;;;9.08;7.12;;;;;;;24.04;53.61;101528.20;1618087;87;21069;-48
2021/08/21 03:45:54;;;;;;;8.48;6.87;;;;;;;24.02;53.96;101524.75;1611913;87;21126;-49
2021/08/21 03:48:22;;;;;;;8.85;7.20;;;;;;;24.02;53.66;101524.75;1614969;87;21068;-47
2021/08/21 03:50:49;;;;;;;10.85;7.15;;;;;;;24.03;53.40;101526.91;1667771;85;21031;-49
2021/08/21 03:53:16;;;;;;;8.55;6.67;;;;;;;24.03;53.52;101518.50;1666915;84;21111;-51
2021/08/21 03:55:44;;;;;;;8.90;6.67;;;;;;;24.02;53.38;101520.77;1670129;85;21119;-50
2021/08/21 03:58:11;;;;;;;9.43;7.12;;;;;;;24.01;53.32;101519.52;1679117;83;21596;-50
2021/08/21 04:00:38;;;;;;;7.67;6.80;;;;;;;24.00;53.35;101517.36;1674603;84;21161;-47
2021/08/21 04:03:08;;;;;;;10.32;6.50;;;;;;;23.99;53.53;101511.64;1672188;85;21044;-49
2021/08/21 04:05:36;;;;;;;8.40;6.92;;;;;;;23.99;53.48;101518.30;1673458;84;21012;-52
2021/08/21 04:08:06;;;;;;;8.03;6.67;;;;;;;23.99;53.32;101509.45;1654133;85;21135;-47
2021/08/21 04:10:34;;;;;;;7.60;6.55;;;;;;;24.00;53.39;101517.83;1717219;82;21013;-52
2021/08/21 04:13:02;;;;;;;7.53;6.72;;;;;;;24.02;53.52;101519.44;1730389;82;21538;-48
2021/08/21 04:15:29;;;;;;;7.72;6.62;;;;;;;24.03;53.61;101513.18;1721821;82;21027;-47
2021/08/21 04:17:56;;;;;;;8.88;7.15;;;;;;;24.03;53.46;101518.50;1720426;82;21518;-48
2021/08/21 04:20:24;;;;;;;11.78;7.53;;;;;;;24.03;53.58;101519.83;1721936;82;20994;-49
2021/08/21 04:22:50;;;;;;;11.25;7.05;;;;;;;24.04;53.55;101520.22;1711932;82;21007;-51
2021/08/21 04:25:17;;;;;;;89.47;11.63;;;;;;;24.05;53.65;101524.57;1724926;82;21054;-49
2021/08/21 04:27:46;;;;;;;9.68;7.25;;;;;;;24.07;53.72;101530.64;1718665;82;21528;-47
2021/08/21 04:30:14;;;;;;;14.07;7.00;;;;;;;24.08;53.58;101527.05;1718313;82;21074;-49
2021/08/21 04:32:41;;;;;;;13.53;7.37;;;;;;;24.09;53.48;101531.39;1720963;82;21048;-46
2021/08/21 04:35:08;;;;;;;9.15;7.45;;;;;;;24.10;53.60;101527.80;1718830;82;21077;-48
2021/08/21 04:37:37;;;;;;;8.33;6.53;;;;;;;24.11;53.24;101530.81;1721936;82;21511;-49
2021/08/21 04:40:08;;;;;;;8.20;6.67;;;;;;;24.11;53.18;101534.80;1723714;82;21078;-46
2021/08/21 04:42:35;;;;;;;7.53;6.00;;;;;;;24.12;53.04;101520.56;1661179;85;21571;-49
2021/08/21 04:45:04;;;;;;;11.97;6.85;;;;;;;24.13;53.11;101534.22;1722714;82;21032;-48
2021/08/21 04:47:33;;;;;;;11.73;7.15;;;;;;;24.14;53.12;101529.30;1715027;82;21050;-48
2021/08/21 04:49:59;;;;;;;12.88;6.83;;;;;;;24.13;53.02;101534.22;1724481;82;21038;-50
2021/08/21 04:52:28;;;;;;;7.87;6.95;;;;;;;24.14;53.19;101534.61;1724123;82;21085;-49
2021/08/21 04:54:57;;;;;;;10.58;6.87;;;;;;;24.13;53.16;101534.22;1722470;82;21078;-45
2021/08/21 04:57:23;;;;;;;9.90;6.50;;;;;;;24.14;53.14;101537.27;1728987;82;21085;-49
2021/08/21 04:59:50;;;;;;;10.13;6.53;;;;;;;24.15;52.99;101542.95;1726915;82;21032;-47
2021/08/21 05:02:17;;;;;;;9.55;6.33;;;;;;;24.17;53.06;101545.03;1734584;82;21038;-46
2021/08/21 05:04:44;;;;;;;8.78;6.00;;;;;;;24.18;52.92;101549.41;1723930;82;21038;-49
2021/08/21 05:07:11;;;;;;;11.90;7.17;;;;;;;24.20;52.82;101546.64;1723181;82;21026;-49
2021/08/21 05:09:39;;;;;;;7.28;6.42;;;;;;;24.21;52.89;101553.19;1717128;82;21043;-51
2021/08/21 05:12:10;;;;;;;9.45;7.90;;;;;;;24.21;53.03;101554.52;1720278;82;21535;-47
2021/08/21 05:14:40;;;;;;;10.35;7.05;;;;;;;24.24;53.09;101559.64;1718439;82;21041;-47
2021/08/21 05:17:09;;;;;;;10.70;7.20;;;;;;;24.29;53.18;101559.81;1652729;85;21041;-49
2021/08/21 05:22:26;;;;;;;10.53;6.90;;;;;;;24.35;52.99;101562.07;1592595;87;21032;-50
2021/08/21 05:24:52;;;;;;;7.83;6.78;;;;;;;24.36;52.98;101561.13;1604686;88;21510;-49
2021/08/21 05:27:22;;;;;;;10.08;6.50;;;;;;;24.37;53.02;101570.80;1586470;89;21064;-48
2021/08/21 05:29:48;;;;;;;13.90;6.58;;;;;;;24.39;53.14;101574.22;1604883;88;21220;-50
2021/08/21 05:32:15;;;;;;;8.98;6.60;;;;;;;24.40;52.88;101578.59;1608742;88;21124;-46
2021/08/21 05:34:42;;;;;;;8.58;6.92;;;;;;;24.43;52.73;101583.23;1593866;88;21142;-51
2021/08/21 05:37:10;;;;;;;8.28;6.55;;;;;;;24.47;52.67;101581.20;1584117;88;21101;-49
2021/08/21 05:39:38;;;;;;;10.00;7.00;;;;;;;24.48;52.57;101577.61;1588089;89;21110;-50
2021/08/21 05:42:05;;;;;;;13.98;7.47;;;;;;;24.52;52.50;101577.30;1578637;89;21518;-47
2021/08/21 05:44:32;;;;;;;8.08;6.90;;;;;;;24.56;52.05;101580.14;1595386;88;21038;-48
2021/08/21 05:46:59;;;;;;;10.10;9.00;;;;;;;24.60;52.24;101583.44;1587137;89;21102;-49
2021/08/21 05:49:26;;;;;;;7.75;6.95;;;;;;;24.64;51.97;101587.13;1596032;88;21006;-47
2021/08/21 05:51:53;;;;;;;8.65;6.58;;;;;;;24.69;52.03;101586.32;1596535;88;21130;-49
2021/08/21 05:54:20;;;;;;;6.78;6.15;;;;;;;24.74;52.28;101588.71;1642412;86;21507;-47
2021/08/21 05:56:47;;;;;;;7.33;6.62;;;;;;;24.81;52.10;101588.69;1624697;86;21149;-48
2021/08/21 05:59:14;;;;;;;8.03;6.45;;;;;;;24.86;51.89;101583.89;1632451;87;21165;-49
2021/08/21 06:01:41;;;;;;;7.17;5.83;;;;;;;24.94;51.60;101594.86;1638706;86;21085;-46
2021/08/21 06:04:08;;;;;;;8.53;6.45;;;;;;;25.04;51.89;101598.59;1635201;86;21092;-49
2021/08/21 06:06:36;;;;;;;8.83;6.72;;;;;;;25.17;51.84;101588.81;1637485;86;21146;-47
2021/08/21 06:09:04;;;;;;;8.05;6.37;;;;;;;25.35;51.06;101590.19;1637276;86;21074;-49
2021/08/21 06:11:31;;;;;;;6.92;6.22;;;;;;;25.63;49.93;101578.48;1635184;86;21041;-46
2021/08/21 06:13:58;;;;;;;20.02;7.50;;;;;;;25.76;49.58;101590.81;1636677;86;21089;-49
2021/08/21 06:16:24;;;;;;;9.48;7.20;;;;;;;25.76;49.58;101590.81;1646178;85;21106;-50
2021/08/21 06:18:51;;;;;;;10.95;7.60;;;;;;;25.84;49.41;101584.95;1692392;82;22520;-49
2021/08/21 06:21:17;;;;;;;9.38;7.78;;;;;;;25.91;49.25;101588.86;1719793;82;21053;-51
2021/08/21 06:23:44;;;;;;;8.23;7.35;;;;;;;26.00;49.06;101588.67;1723964;82;21054;-50
2021/08/21 06:26:11;;;;;;;14.90;7.33;;;;;;;26.07;48.65;101584.61;1718466;82;21585;-52
2021/08/21 06:28:37;;;;;;;11.28;6.92;;;;;;;26.15;48.80;101594.27;1722517;82;21030;-48
2021/08/21 06:31:05;;;;;;;8.10;6.40;;;;;;;26.20;48.78;101592.09;1724715;82;21058;-47
2021/08/21 06:33:31;;;;;;;14.38;7.10;;;;;;;26.24;48.28;101589.57;1722542;82;21046;-51
2021/08/21 06:35:59;;;;;;;7.55;6.17;;;;;;;26.24;48.28;101589.57;1709527;82;21045;-47
2021/08/21 06:38:26;;;;;;;9.05;6.35;;;;;;;26.32;48.29;101596.52;1718519;82;21101;-48
2021/08/21 06:40:53;;;;;;;11.33;6.92;;;;;;;26.41;48.20;101591.84;1722256;82;21010;-46
2021/08/21 06:43:20;;;;;;;6.65;5.95;;;;;;;26.49;48.12;101602.80;1721869;82;20999;-47
2021/08/21 06:46:07;;;;;;;12.07;6.53;;;;;;;26.53;48.32;101601.12;1723917;82;21613;-47
2021/08/21 06:48:35;;;;;;;7.05;6.35;;;;;;;26.58;48.22;101602.13;1718943;82;21032;-48
2021/08/21 06:51:02;;;;;;;8.80;6.83;;;;;;;26.58;47.99;101604.80;1721414;81;21073;-48
2021/08/21 06:53:30;;;;;;;7.67;6.12;;;;;;;26.59;48.22;101603.81;1717920;82;21101;-47
2021/08/21 06:58:26;;;;;;;10.25;7.08;;;;;;;26.54;47.79;101608.66;1644557;85;21039;-47
2021/08/21 07:00:53;;;;;;;14.90;6.67;;;;;;;26.50;48.20;101608.52;1638167;87;21007;-46
2021/08/21 07:03:19;;;;;;;11.68;6.80;;;;;;;26.51;48.56;101607.55;1638719;87;21566;-48
2021/08/21 07:05:46;;;;;;;7.97;6.60;;;;;;;26.52;48.72;101606.59;1646024;85;21089;-48
2021/08/21 07:08:15;;;;;;;11.10;6.95;;;;;;;26.52;48.88;101601.25;1650470;85;21676;-48
2021/08/21 07:10:41;;;;;;;8.43;6.83;;;;;;;26.53;48.83;101603.80;1646843;85;20992;-50
2021/08/21 07:13:09;;;;;;;8.40;6.78;;;;;;;26.53;48.45;101608.28;1646148;85;21067;-47
2021/08/21 07:15:37;;;;;;;7.10;6.40;;;;;;;26.52;48.64;101607.92;1649874;87;21075;-49
2021/08/21 07:18:04;;;;;;;9.58;7.17;;;;;;;26.53;48.82;101609.61;1639790;86;21677;-47
2021/08/21 07:20:30;;;;;;;11.05;7.03;;;;;;;26.57;49.04;101613.75;1644750;86;21042;-49
2021/08/21 07:22:57;;;;;;;7.67;6.92;;;;;;;26.60;49.14;101613.03;1664858;85;21582;-47
2021/08/21 07:25:24;;;;;;;8.50;7.00;;;;;;;26.63;48.74;101614.62;1648235;85;21072;-46
2021/08/21 07:27:52;;;;;;;7.12;6.37;;;;;;;26.65;48.77;101619.37;1648536;86;21062;-48
2021/08/21 07:30:19;;;;;;;12.25;7.50;;;;;;;26.66;48.86;101611.74;1646937;85;21155;-49
2021/08/21 07:32:46;;;;;;;16.00;8.40;;;;;;;26.69;48.72;101625.34;1648464;85;21107;-49
2021/08/21 07:35:13;;;;;;;8.10;6.80;;;;;;;26.70;49.02;101614.55;1653494;86;21178;-46
2021/08/21 07:37:41;;;;;;;10.60;6.70;;;;;;;26.73;48.60;101620.18;1650166;84;21102;-48
2021/08/21 07:40:09;;;;;;;7.53;6.78;;;;;;;26.77;48.99;101624.32;1643112;87;21043;-49
2021/08/21 07:42:36;;;;;;;8.48;6.60;;;;;;;26.80;48.98;101624.93;1646489;85;21053;-46
2021/08/21 07:45:05;;;;;;;11.10;7.10;;;;;;;26.85;48.47;101624.11;1653143;85;21069;-49
2021/08/21 07:47:32;;;;;;;8.35;7.28;;;;;;;26.91;48.39;101624.13;1646940;85;21594;-49
2021/08/21 07:50:00;;;;;;;7.65;6.17;;;;;;;26.96;48.57;101625.46;1640826;86;21055;-50
2021/08/21 07:52:26;;;;;;;9.48;6.67;;;;;;;26.98;47.99;101619.52;1647354;85;21145;-46
2021/08/21 07:54:56;;;;;;;11.33;6.62;;;;;;;27.03;47.97;101625.84;1679823;82;21018;-47
2021/08/21 07:57:22;;;;;;;9.68;6.85;;;;;;;27.08;48.26;101626.36;1725213;82;21086;-49
2021/08/21 07:59:49;;;;;;;7.22;6.53;;;;;;;27.10;48.23;101623.91;1724851;82;21081;-46
2021/08/21 08:02:16;;;;;;;12.30;7.53;;;;;;;27.13;48.27;101625.03;1722763;82;21087;-48
2021/08/21 08:04:42;;;;;;;10.53;6.45;;;;;;;27.16;47.72;101619.43;1724659;82;21475;-49
2021/08/21 08:07:09;;;;;;;9.73;7.08;;;;;;;27.21;46.96;101627.09;1720181;82;20979;-49
2021/08/21 08:09:36;;;;;;;10.18;7.28;;;;;;;27.25;46.63;101625.89;1721064;82;21082;-48
2021/08/21 08:12:05;;;;;;;8.40;6.90;;;;;;;27.30;46.82;101629.93;1720680;82;21518;-46
2021/08/21 08:14:31;;;;;;;8.05;6.67;;;;;;;27.34;46.97;101628.75;1720452;82;21557;-50
2021/08/21 08:16:59;;;;;;;8.10;6.90;;;;;;;27.37;46.65;101632.50;1713104;82;21463;-49
2021/08/21 08:19:26;;;;;;;8.00;6.95;;;;;;;27.42;46.91;101629.95;1725176;82;21030;-48
2021/08/21 08:21:54;;;;;;;8.95;6.50;;;;;;;27.45;47.00;101625.21;1725504;82;21054;-49
2021/08/21 08:24:23;;;;;;;10.10;7.30;;;;;;;27.47;47.13;101627.79;1724624;82;21506;-49
2021/08/21 08:26:50;;;;;;;7.90;6.60;;;;;;;27.48;47.44;101627.66;1725040;82;21023;-46
2021/08/21 08:29:17;;;;;;;9.30;7.00;;;;;;;27.52;47.82;101633.61;1719251;82;21503;-47
2021/08/21 08:31:44;;;;;;;10.08;7.03;;;;;;;27.56;47.79;101627.91;1713223;82;21062;-47
2021/08/21 08:34:11;;;;;;;9.60;6.08;;;;;;;27.61;47.18;101632.89;1722627;82;21019;-49
2021/08/21 08:36:37;;;;;;;6.65;5.80;;;;;;;27.68;46.81;101627.41;1720165;82;21062;-48
2021/08/21 08:39:05;;;;;;;10.23;6.67;;;;;;;27.74;46.45;101630.96;1722578;82;21031;-47
2021/08/21 08:41:33;;;;;;;10.18;6.08;;;;;;;27.79;45.30;101631.42;1715375;82;21585;-48
2021/08/21 08:44:00;;;;;;;10.85;6.12;;;;;;;27.86;44.96;101638.00;1726597;82;20991;-48
2021/08/21 08:46:26;;;;;;;8.78;5.58;;;;;;;27.92;44.83;101638.37;1724041;82;21053;-47
2021/08/21 08:48:53;;;;;;;8.18;5.55;;;;;;;27.98;45.37;101640.58;1722120;82;21019;-48
2021/08/21 08:51:20;;;;;;;7.45;5.40;;;;;;;28.04;45.42;101637.41;1723189;82;21602;-48
2021/08/21 08:53:47;;;;;;;8.18;5.72;;;;;;;28.08;44.99;101633.98;1720693;82;21030;-46
2021/08/21 08:56:13;;;;;;;8.00;5.62;;;;;;;28.11;45.07;101643.09;1715154;82;21034;-47
2021/08/21 08:58:40;;;;;;;8.63;5.22;;;;;;;28.15;45.04;101644.57;1715189;82;21096;-49
2021/08/21 09:01:07;;;;;;;12.73;4.97;;;;;;;28.19;44.69;101640.67;1723974;82;21043;-47
2021/08/21 09:03:36;;;;;;;5.33;4.83;;;;;;;28.23;43.78;101636.77;1721933;82;21097;-50
2021/08/21 09:06:02;;;;;;;8.18;4.53;;;;;;;28.27;42.84;101640.89;1722045;82;21042;-49
2021/08/21 09:08:31;;;;;;;5.25;4.75;;;;;;;28.28;42.62;101639.90;1718982;82;21010;-49
2021/08/21 09:11:02;;;;;;;5.67;4.70;;;;;;;28.32;42.45;101640.48;1720962;82;20994;-48
2021/08/21 09:13:31;;;;;;;8.23;5.03;;;;;;;28.35;42.11;101638.44;1728232;82;21018;-46
2021/08/21 09:16:00;;;;;;;6.47;5.10;;;;;;;28.37;42.26;101641.84;1714258;82;21078;-48
2021/08/21 09:18:29;;;;;;;5.92;5.20;;;;;;;28.40;42.62;101642.91;1716702;82;20999;-49
2021/08/21 09:21:03;;;;;;;7.30;5.42;;;;;;;28.43;42.44;101637.31;1720841;82;21073;-46
2021/08/21 09:23:35;;;;;;;9.78;5.70;;;;;;;28.45;42.51;101635.36;1722191;82;21613;-48
2021/08/21 09:26:24;;;;;;;8.25;5.47;;;;;;;28.48;42.41;101633.75;1720515;82;21083;-46
2021/08/21 09:28:52;;;;;;;10.23;5.25;;;;;;;28.51;42.27;101636.19;1719345;82;21078;-48
2021/08/21 09:31:22;;;;;;;5.80;4.65;;;;;;;28.55;42.10;101637.63;1721204;82;21014;-48
2021/08/21 09:33:56;;;;;;;7.62;5.40;;;;;;;28.59;42.00;101643.61;1723775;82;21018;-49
2021/08/21 09:36:40;;;;;;;6.85;5.30;;;;;;;28.61;42.05;101638.49;1714108;83;21556;-51
2021/08/21 09:39:13;;;;;;;6.37;5.15;;;;;;;28.66;41.96;101635.44;1642572;84;21105;-47
2021/08/21 09:41:58;;;;;;;7.67;6.53;;;;;;;28.69;41.79;101639.18;1552499;90;21130;-50
2021/08/21 09:44:31;;;;;;;10.28;5.00;;;;;;;28.71;41.24;101640.76;1539817;91;21143;-48
2021/08/21 09:47:24;;;;;;;5.65;4.22;;;;;;;28.75;41.18;101635.98;1465032;96;21097;-48
2021/08/21 09:50:17;;;;;;;7.37;4.17;;;;;;;28.78;40.47;101631.24;1457860;98;21114;-47
2021/08/21 09:52:45;;;;;;;14.78;5.78;;;;;;;28.84;40.36;101634.75;1422624;99;21110;-51
2021/08/21 09:55:22;;;;;;;7.42;5.85;;;;;;;28.87;40.46;101627.77;1437347;98;21205;-52
2021/08/21 09:58:09;;;;;;;7.95;4.97;;;;;;;28.92;40.14;101632.27;1435802;97;21165;-47
2021/08/21 10:00:38;;;;;;;10.20;4.72;;;;;;;28.97;39.69;101634.05;1438336;98;21744;-49
2021/08/21 10:03:05;;;;;;;6.78;4.45;;;;;;;29.01;39.13;101639.16;1435966;98;21149;-47
2021/08/21 10:05:32;;;;;;;11.50;4.60;;;;;;;29.04;39.31;101636.23;1439877;99;21145;-46
2021/08/21 10:10:35;;;;;;;4.62;3.62;;;;;;;29.13;39.24;101635.44;1438386;98;21204;-48
2021/08/21 10:13:09;;;;;;;4.90;4.50;;;;;;;29.17;38.77;101640.44;1441860;97;21178;-47
2021/08/21 10:15:40;;;;;;;5.83;3.92;;;;;;;29.22;38.49;101636.03;1433954;98;21225;-47
2021/08/21 10:18:09;;;;;;;6.80;4.60;;;;;;;29.25;38.99;101639.77;1424847;99;21191;-51
2021/08/21 10:20:38;;;;;;;4.40;3.95;;;;;;;29.28;39.05;101637.70;1432963;99;21203;-50
2021/08/21 10:23:12;;;;;;;8.20;4.35;;;;;;;29.32;39.00;101638.27;1437894;98;21120;-49
2021/08/21 10:25:56;;;;;;;6.87;4.80;;;;;;;29.34;39.27;101637.65;1451174;98;21125;-47
2021/08/21 10:28:23;;;;;;;5.60;4.83;;;;;;;29.37;39.61;101637.37;1445105;98;21142;-49
2021/08/21 10:30:50;;;;;;;6.03;5.25;;;;;;;29.42;39.97;101631.13;1466210;97;21171;-47
2021/08/21 10:33:18;;;;;;;6.50;4.70;;;;;;;29.46;39.57;101636.09;1463548;98;21115;-49
2021/08/21 10:35:50;;;;;;;6.65;4.70;;;;;;;29.49;39.53;101630.97;1461060;97;21196;-51
2021/08/21 10:38:36;;;;;;;5.67;4.78;;;;;;;29.54;39.51;101634.08;1493970;93;21059;-50
2021/08/21 10:41:26;;;;;;;5.75;4.75;;;;;;;29.56;38.96;101641.50;1531097;92;21121;-49
2021/08/21 10:43:55;;;;;;;7.10;4.40;;;;;;;29.58;38.60;101636.85;1579318;89;21105;-47
2021/08/21 10:46:36;;;;;;;4.92;4.42;;;;;;;29.61;38.98;101632.58;1582271;87;21107;-48
2021/08/21 10:49:06;;;;;;;5.30;4.67;;;;;;;29.64;39.19;101633.63;1625421;87;21101;-47
2021/08/21 10:51:42;;;;;;;19.75;6.42;;;;;;;29.67;38.71;101629.35;1538556;93;21149;-50
2021/08/21 10:54:33;;;;;;;8.53;4.90;;;;;;;29.69;38.87;101623.36;1534279;92;21159;-50
2021/08/21 10:57:28;;;;;;;6.45;4.80;;;;;;;29.73;38.88;101612.75;1530510;93;21101;-50
2021/08/21 10:59:55;;;;;;;8.85;4.97;;;;;;;29.80;39.30;101620.59;1483519;95;21146;-49
2021/08/21 11:02:34;;;;;;;6.20;4.62;;;;;;;29.85;39.10;101618.36;1477796;95;21250;-50
2021/08/21 11:05:01;;;;;;;7.40;4.83;;;;;;;29.89;39.25;101618.92;1475381;95;21172;-48
2021/08/21 11:07:40;;;;;;;11.00;4.87;;;;;;;29.92;38.90;101613.30;1487856;96;21077;-48
2021/08/21 11:10:23;;;;;;;5.17;4.67;;;;;;;29.94;38.32;101612.19;1488787;96;21154;-50
2021/08/21 11:12:53;;;;;;;6.90;4.58;;;;;;;29.96;38.50;101608.88;1479527;95;21655;-49
2021/08/21 11:15:33;;;;;;;5.40;4.90;;;;;;;29.97;38.28;101609.21;1479619;96;21095;-51
2021/08/21 11:17:59;;;;;;;7.23;4.60;;;;;;;29.99;38.63;101611.75;1487974;96;21105;-50
2021/08/21 11:20:33;;;;;;;8.10;5.20;;;;;;;30.01;39.06;101607.09;1484280;95;21341;-47
2021/08/21 11:23:12;;;;;;;10.18;6.62;;;;;;;30.02;39.49;101609.66;1487290;96;21141;-49
2021/08/21 11:25:42;;;;;;;6.33;5.58;;;;;;;30.06;39.57;101604.86;1484589;96;21105;-50
2021/08/21 11:30:40;;;;;;;5.78;5.03;;;;;;;30.13;39.22;101614.07;1435941;98;21645;-50
2021/08/21 11:33:12;;;;;;;5.42;4.92;;;;;;;30.13;39.00;101609.53;1444588;98;21155;-47
2021/08/21 11:35:48;;;;;;;8.90;5.17;;;;;;;30.13;38.60;101606.02;1436817;98;21119;-49
2021/08/21 11:38:28;;;;;;;6.53;4.78;;;;;;;30.12;39.10;101603.81;1445677;99;21230;-49
2021/08/21 11:40:57;;;;;;;7.92;4.70;;;;;;;30.12;39.19;101607.84;1472021;96;21105;-46
2021/08/21 11:43:28;;;;;;;8.78;4.92;;;;;;;30.14;38.54;101605.88;1441680;99;21291;-50
2021/08/21 11:45:56;;;;;;;7.10;5.08;;;;;;;30.17;38.69;101598.86;1456792;97;21101;-46